Time;durP1;ratioP1;P1;durP2;ratioP2;P2;SDS_P1;SDS_P2;PMS_P1;PMS_P2;Temp;Humidity;BMP_temperature;BMP_pressure;BME280_temperature;BME280_humidity;BME280_pressure;Samples;Min_cycle;Max_cycle;Signal;HPM_P1;HPM_P2
2021/12/08 00:01:29;;;;;;;5.65;2.90;;;;;;;;;;5025077;28;20151;-74
2021/12/08 00:03:55;;;;;;;4.05;2.67;;;;;;;;;;5025153;28;20037;-73
2021/12/08 00:06:21;;;;;;;6.05;3.80;;;;;;;;;;5042604;28;20040;-73
2021/12/08 00:09:01;;;;;;;8.70;3.80;;;;;;;;;;5043266;28;20060;-74
2021/12/08 00:14:12;;;;;;;8.45;3.33;;;;;;;;;;5043383;28;20543;-75
2021/12/08 00:16:39;;;;;;;7.63;3.22;;;;;;;;;;5025310;28;20040;-75
2021/12/08 00:19:05;;;;;;;11.55;3.42;;;;;;;;;;5041661;28;20048;-74
2021/12/08 00:21:30;;;;;;;6.65;2.90;;;;;;;;;;5043101;28;20049;-73
2021/12/08 00:23:56;;;;;;;6.15;3.15;;;;;;;;;;5025032;28;20037;-74
2021/12/08 00:26:22;;;;;;;8.82;3.60;;;;;;;;;;5025477;28;20063;-73
2021/12/08 00:28:48;;;;;;;7.13;3.05;;;;;;;;;;5026939;28;20388;-74
2021/12/08 00:31:14;;;;;;;4.85;2.85;;;;;;;;;;5024683;28;20037;-74
2021/12/08 00:33:41;;;;;;;6.03;3.03;;;;;;;;;;5025690;28;20032;-73
2021/12/08 00:36:14;;;;;;;7.30;4.30;;;;;;;;;;5045861;28;20048;-74
2021/12/08 00:38:40;;;;;;;5.25;2.95;;;;;;;;;;5036515;28;20041;-73
2021/12/08 00:41:06;;;;;;;11.20;3.45;;;;;;;;;;5057660;28;20143;-74
2021/12/08 00:43:32;;;;;;;8.50;3.33;;;;;;;;;;5057189;28;20036;-73
2021/12/08 00:45:58;;;;;;;9.00;3.50;;;;;;;;;;5057199;28;20040;-74
2021/12/08 00:48:24;;;;;;;9.23;3.25;;;;;;;;;;5057088;28;20052;-74
2021/12/08 00:50:51;;;;;;;5.55;2.85;;;;;;;;;;5057223;28;20067;-72
2021/12/08 00:53:17;;;;;;;8.75;3.00;;;;;;;;;;5057159;28;20043;-72
2021/12/08 00:55:43;;;;;;;7.47;3.28;;;;;;;;;;5057042;28;20071;-72
2021/12/08 00:58:09;;;;;;;8.48;3.80;;;;;;;;;;5056916;28;20428;-74
2021/12/08 01:00:38;;;;;;;3.85;2.65;;;;;;;;;;5040747;28;20033;-72
2021/12/08 01:03:04;;;;;;;5.75;2.53;;;;;;;;;;5057127;28;20426;-74
2021/12/08 01:05:33;;;;;;;6.72;3.08;;;;;;;;;;5056928;28;20065;-74
2021/12/08 01:07:59;;;;;;;6.78;2.63;;;;;;;;;;5040624;28;20524;-74
2021/12/08 01:10:27;;;;;;;4.90;2.53;;;;;;;;;;5040298;28;20040;-75
2021/12/08 01:12:53;;;;;;;4.35;2.05;;;;;;;;;;5056972;28;20193;-73
2021/12/08 01:15:20;;;;;;;4.53;2.67;;;;;;;;;;5040443;28;20472;-74
2021/12/08 01:17:46;;;;;;;10.02;3.15;;;;;;;;;;5056629;28;20041;-74
2021/12/08 01:20:13;;;;;;;3.33;2.55;;;;;;;;;;5057077;28;20036;-74
2021/12/08 01:22:39;;;;;;;4.72;2.33;;;;;;;;;;5040025;28;20052;-74
2021/12/08 01:25:06;;;;;;;4.93;2.17;;;;;;;;;;5056542;28;20044;-75
2021/12/08 01:27:33;;;;;;;3.97;2.55;;;;;;;;;;5039955;28;20625;-73
2021/12/08 01:29:59;;;;;;;3.30;2.30;;;;;;;;;;5039862;28;20119;-72
2021/12/08 01:32:26;;;;;;;8.15;2.67;;;;;;;;;;5056482;28;20036;-74
2021/12/08 01:34:53;;;;;;;3.35;2.08;;;;;;;;;;5039839;28;20045;-75
2021/12/08 01:37:19;;;;;;;3.65;2.03;;;;;;;;;;5056386;28;20500;-73
2021/12/08 01:39:45;;;;;;;4.20;2.45;;;;;;;;;;5056535;28;20471;-74
2021/12/08 01:42:17;;;;;;;5.60;2.30;;;;;;;;;;5039839;28;20043;-75
2021/12/08 01:47:28;;;;;;;5.35;2.47;;;;;;;;;;5056196;28;20049;-76
2021/12/08 01:49:54;;;;;;;4.45;2.90;;;;;;;;;;5039287;28;20044;-74
2021/12/08 01:52:20;;;;;;;5.45;1.90;;;;;;;;;;5038929;28;20044;-74
2021/12/08 01:54:46;;;;;;;3.92;1.92;;;;;;;;;;5056069;28;20101;-74
2021/12/08 01:57:13;;;;;;;5.53;2.67;;;;;;;;;;5039327;28;20049;-73
2021/12/08 01:59:39;;;;;;;4.53;2.47;;;;;;;;;;5055861;28;20056;-73
2021/12/08 02:02:05;;;;;;;5.40;2.63;;;;;;;;;;5039258;28;20066;-75
2021/12/08 02:04:31;;;;;;;3.45;2.03;;;;;;;;;;5056026;28;20043;-74
2021/12/08 02:06:58;;;;;;;6.70;2.38;;;;;;;;;;5039151;28;20040;-73
2021/12/08 02:09:24;;;;;;;4.75;2.65;;;;;;;;;;5039213;28;20044;-73
2021/12/08 02:11:54;;;;;;;3.85;1.92;;;;;;;;;;5055731;28;20094;-74
2021/12/08 02:14:20;;;;;;;4.35;2.20;;;;;;;;;;5039269;28;20153;-70
2021/12/08 02:16:47;;;;;;;3.17;2.47;;;;;;;;;;5055609;28;20045;-75
2021/12/08 02:19:13;;;;;;;3.92;1.90;;;;;;;;;;5038959;28;20152;-75
2021/12/08 02:21:40;;;;;;;7.03;2.78;;;;;;;;;;5038916;28;20092;-75
2021/12/08 02:24:10;;;;;;;5.05;2.85;;;;;;;;;;5038807;28;20040;-74
2021/12/08 02:26:36;;;;;;;4.75;2.30;;;;;;;;;;5039045;28;20033;-74
2021/12/08 02:29:07;;;;;;;6.13;2.42;;;;;;;;;;5039178;28;20511;-73
2021/12/08 02:31:42;;;;;;;5.47;2.28;;;;;;;;;;5038739;28;20044;-75
2021/12/08 02:50:18;;;;;;;6.30;3.03;;;;;;;;;;5055024;28;20048;-73
2021/12/08 02:52:44;;;;;;;5.10;2.28;;;;;;;;;;5038510;28;20066;-74
2021/12/08 02:55:10;;;;;;;7.40;3.08;;;;;;;;;;5055166;28;20044;-74
2021/12/08 02:57:36;;;;;;;4.60;2.13;;;;;;;;;;5054797;28;20093;-75
2021/12/08 03:00:05;;;;;;;2.85;2.17;;;;;;;;;;5038447;28;20040;-74
2021/12/08 03:02:31;;;;;;;5.82;2.78;;;;;;;;;;5054314;28;20039;-74
2021/12/08 03:04:57;;;;;;;5.15;2.63;;;;;;;;;;5038043;28;20033;-71
2021/12/08 03:07:23;;;;;;;3.67;2.40;;;;;;;;;;5054922;28;20058;-74
2021/12/08 03:09:49;;;;;;;3.88;2.38;;;;;;;;;;5038231;28;20048;-75
2021/12/08 03:12:15;;;;;;;5.22;2.15;;;;;;;;;;5054395;28;20086;-74
2021/12/08 03:14:41;;;;;;;3.22;2.40;;;;;;;;;;5038119;28;20036;-75
2021/12/08 03:17:09;;;;;;;4.15;2.20;;;;;;;;;;5037865;28;20076;-74
2021/12/08 03:19:35;;;;;;;4.72;2.05;;;;;;;;;;5037673;28;20124;-74
2021/12/08 03:22:09;;;;;;;7.65;2.58;;;;;;;;;;5054213;28;20059;-73
2021/12/08 03:24:38;;;;;;;3.92;2.55;;;;;;;;;;5038033;28;20047;-76
2021/12/08 03:29:36;;;;;;;2.75;1.70;;;;;;;;;;5054469;28;20140;-70
2021/12/08 03:32:11;;;;;;;5.05;2.38;;;;;;;;;;5037881;28;20040;-74
2021/12/08 03:34:40;;;;;;;5.03;2.00;;;;;;;;;;5037738;28;20524;-74
2021/12/08 03:37:07;;;;;;;4.43;2.65;;;;;;;;;;5054126;28;20451;-73
2021/12/08 03:39:34;;;;;;;5.35;2.55;;;;;;;;;;5054426;28;20543;-74
2021/12/08 03:42:00;;;;;;;5.43;3.22;;;;;;;;;;5054058;28;20040;-76
2021/12/08 03:44:26;;;;;;;3.88;2.50;;;;;;;;;;5054302;28;20075;-74
2021/12/08 03:46:55;;;;;;;4.47;2.58;;;;;;;;;;5037114;28;20044;-74
2021/12/08 03:49:21;;;;;;;4.68;3.03;;;;;;;;;;5053856;28;20093;-72
2021/12/08 03:51:47;;;;;;;6.57;2.95;;;;;;;;;;5053752;28;20127;-73
2021/12/08 03:54:15;;;;;;;5.57;2.75;;;;;;;;;;5054077;28;20048;-73
2021/12/08 03:56:41;;;;;;;7.20;3.45;;;;;;;;;;5053729;28;20097;-73
2021/12/08 03:59:07;;;;;;;6.05;3.05;;;;;;;;;;5037148;28;20040;-74
2021/12/08 04:01:33;;;;;;;7.13;3.40;;;;;;;;;;5053739;28;20040;-75
2021/12/08 04:04:05;;;;;;;4.68;3.30;;;;;;;;;;5037080;28;20051;-75
2021/12/08 04:06:39;;;;;;;6.80;2.97;;;;;;;;;;5053688;28;20404;-75
2021/12/08 04:09:13;;;;;;;7.00;3.72;;;;;;;;;;5036952;28;20041;-72
2021/12/08 04:11:39;;;;;;;5.07;3.33;;;;;;;;;;5037112;28;20127;-73
2021/12/08 04:14:07;;;;;;;5.10;3.55;;;;;;;;;;5052942;28;20040;-75
2021/12/08 04:16:38;;;;;;;7.22;3.92;;;;;;;;;;5036853;28;20058;-74
2021/12/08 04:19:06;;;;;;;9.25;4.15;;;;;;;;;;5037085;28;20036;-74
2021/12/08 04:21:32;;;;;;;6.68;3.95;;;;;;;;;;5053214;28;20110;-73
2021/12/08 04:23:58;;;;;;;7.90;3.58;;;;;;;;;;5037068;28;20036;-77
2021/12/08 04:26:30;;;;;;;7.72;4.70;;;;;;;;;;5053397;28;20036;-74
2021/12/08 04:28:56;;;;;;;7.20;4.00;;;;;;;;;;5036754;28;20435;-75
2021/12/08 04:31:25;;;;;;;7.80;4.85;;;;;;;;;;5036668;28;20032;-75
2021/12/08 04:33:53;;;;;;;6.35;4.15;;;;;;;;;;5036799;28;20044;-74
2021/12/08 04:36:20;;;;;;;7.60;4.25;;;;;;;;;;5036721;28;20044;-75
2021/12/08 04:38:50;;;;;;;8.05;4.38;;;;;;;;;;5053334;28;20036;-75
2021/12/08 04:41:19;;;;;;;6.65;5.10;;;;;;;;;;5053218;28;20036;-74
2021/12/08 04:44:10;;;;;;;14.55;4.45;;;;;;;;;;5053110;28;20047;-75
2021/12/08 04:46:56;;;;;;;6.45;3.95;;;;;;;;;;5036575;28;20051;-74
2021/12/08 04:50:12;;;;;;;8.15;5.45;;;;;;;;;;5036620;28;20037;-75
2021/12/08 05:01:12;;;;;;;6.93;4.57;;;;;;;;;;5053273;28;20131;-74
2021/12/08 05:04:06;;;;;;;8.15;5.25;;;;;;;;;;5053320;28;20045;-74
2021/12/08 05:06:44;;;;;;;7.30;4.43;;;;;;;;;;5053322;28;20411;-74
2021/12/08 05:09:15;;;;;;;9.55;5.45;;;;;;;;;;5053101;28;20072;-76
2021/12/08 05:11:44;;;;;;;7.68;5.38;;;;;;;;;;5052948;28;20051;-74
2021/12/08 05:14:12;;;;;;;8.73;5.60;;;;;;;;;;5052905;28;20508;-74
2021/12/08 05:16:40;;;;;;;8.90;5.53;;;;;;;;;;5036539;28;20169;-75
2021/12/08 05:19:09;;;;;;;11.13;5.68;;;;;;;;;;5036530;28;20037;-75
2021/12/08 05:21:38;;;;;;;6.57;4.70;;;;;;;;;;5052540;28;20063;-75
2021/12/08 05:24:10;;;;;;;8.48;5.18;;;;;;;;;;5052920;28;20037;-75
2021/12/08 05:26:36;;;;;;;11.00;5.15;;;;;;;;;;5056077;28;20044;-76
2021/12/08 05:29:11;;;;;;;9.27;6.28;;;;;;;;;;5056520;28;20075;-74
2021/12/08 05:31:37;;;;;;;7.63;5.45;;;;;;;;;;5056506;28;20068;-74
2021/12/08 05:34:04;;;;;;;9.60;5.07;;;;;;;;;;5039790;28;20067;-75
2021/12/08 05:36:30;;;;;;;11.05;5.75;;;;;;;;;;5056322;28;20169;-75
2021/12/08 05:38:57;;;;;;;8.35;4.82;;;;;;;;;;5039712;28;20484;-76
2021/12/08 05:41:25;;;;;;;9.77;5.40;;;;;;;;;;5056276;28;20079;-73
2021/12/08 05:43:51;;;;;;;9.25;5.63;;;;;;;;;;5056138;28;20177;-76
2021/12/08 05:46:19;;;;;;;7.88;5.07;;;;;;;;;;5039502;28;20032;-74
2021/12/08 05:48:49;;;;;;;7.93;4.95;;;;;;;;;;5056133;28;20040;-76
2021/12/08 05:51:21;;;;;;;9.30;5.70;;;;;;;;;;5039640;28;20044;-76
2021/12/08 05:53:48;;;;;;;10.13;5.65;;;;;;;;;;5056323;28;20178;-73
2021/12/08 05:56:14;;;;;;;7.93;4.70;;;;;;;;;;5055934;28;20044;-75
2021/12/08 05:58:42;;;;;;;8.73;5.55;;;;;;;;;;5039194;28;20408;-74
2021/12/08 06:01:12;;;;;;;10.98;6.60;;;;;;;;;;5039177;28;20119;-76
2021/12/08 06:03:38;;;;;;;10.97;5.53;;;;;;;;;;5039339;28;20036;-75
2021/12/08 06:06:05;;;;;;;7.90;4.88;;;;;;;;;;5039445;28;20047;-76
2021/12/08 06:08:31;;;;;;;10.70;5.18;;;;;;;;;;5039044;28;20131;-74
2021/12/08 06:10:58;;;;;;;9.32;5.15;;;;;;;;;;5055912;28;20084;-75
2021/12/08 06:13:24;;;;;;;8.90;5.45;;;;;;;;;;5039066;28;20036;-76
2021/12/08 06:15:50;;;;;;;8.25;5.35;;;;;;;;;;5055598;28;20086;-75
2021/12/08 06:18:22;;;;;;;9.27;5.82;;;;;;;;;;5055539;28;20450;-75
2021/12/08 06:20:50;;;;;;;10.57;5.28;;;;;;;;;;5039039;28;20043;-75
2021/12/08 06:23:16;;;;;;;10.85;5.32;;;;;;;;;;5038922;28;20064;-74
2021/12/08 06:25:42;;;;;;;10.60;5.15;;;;;;;;;;5055692;28;20770;-75
2021/12/08 06:28:08;;;;;;;10.15;5.40;;;;;;;;;;5055419;28;20048;-75
2021/12/08 06:30:35;;;;;;;12.88;5.68;;;;;;;;;;5055467;28;20098;-76
2021/12/08 06:33:02;;;;;;;9.40;5.53;;;;;;;;;;5038698;28;20509;-76
2021/12/08 06:35:33;;;;;;;12.45;5.95;;;;;;;;;;5039106;28;20087;-76
2021/12/08 06:37:59;;;;;;;11.70;6.90;;;;;;;;;;5037546;28;20040;-76
2021/12/08 06:40:28;;;;;;;11.38;6.25;;;;;;;;;;5055066;28;20086;-76
2021/12/08 06:42:55;;;;;;;12.90;6.40;;;;;;;;;;5038523;28;20042;-76
2021/12/08 06:45:23;;;;;;;11.10;6.20;;;;;;;;;;5038707;28;20050;-77
2021/12/08 06:47:50;;;;;;;10.15;5.40;;;;;;;;;;5038398;28;20487;-76
2021/12/08 06:50:28;;;;;;;10.48;5.90;;;;;;;;;;5055127;28;20132;-75
2021/12/08 06:52:55;;;;;;;8.75;5.90;;;;;;;;;;5038552;28;20086;-75
2021/12/08 06:55:30;;;;;;;11.27;5.95;;;;;;;;;;5055173;28;20510;-76
2021/12/08 06:58:18;;;;;;;13.35;6.35;;;;;;;;;;5038442;28;20044;-75
2021/12/08 07:01:01;;;;;;;14.10;6.88;;;;;;;;;;5038566;28;20124;-77
2021/12/08 07:03:32;;;;;;;12.55;5.95;;;;;;;;;;5055773;28;20549;-77
2021/12/08 07:06:19;;;;;;;13.98;5.47;;;;;;;;;;5039057;28;20040;-77
2021/12/08 07:08:48;;;;;;;15.88;5.68;;;;;;;;;;5054346;28;20056;-76
2021/12/08 07:11:15;;;;;;;12.93;6.15;;;;;;;;;;5054669;28;20523;-77
2021/12/08 07:13:41;;;;;;;10.07;5.07;;;;;;;;;;5054720;28;20101;-76
2021/12/08 07:16:09;;;;;;;12.07;5.80;;;;;;;;;;5054631;28;20084;-75
2021/12/08 07:18:50;;;;;;;9.88;5.72;;;;;;;;;;5051909;28;20041;-75
2021/12/08 07:21:17;;;;;;;12.80;6.00;;;;;;;;;;5044218;28;20554;-77
2021/12/08 07:23:49;;;;;;;10.60;5.90;;;;;;;;;;5025583;28;20044;-77
2021/12/08 07:26:20;;;;;;;10.90;5.20;;;;;;;;;;5042902;28;20040;-75
2021/12/08 07:28:47;;;;;;;9.45;5.38;;;;;;;;;;5025781;28;20041;-76
2021/12/08 07:31:16;;;;;;;10.10;5.25;;;;;;;;;;5026406;28;20540;-76
2021/12/08 07:33:43;;;;;;;12.20;5.07;;;;;;;;;;5043848;28;20063;-76
2021/12/08 07:36:11;;;;;;;10.00;4.93;;;;;;;;;;5041227;28;20052;-75
2021/12/08 07:38:39;;;;;;;11.23;4.30;;;;;;;;;;5043583;28;20102;-76
2021/12/08 07:41:09;;;;;;;9.00;4.47;;;;;;;;;;5041883;28;20047;-76
2021/12/08 07:43:37;;;;;;;9.35;3.85;;;;;;;;;;5025709;28;20438;-76
2021/12/08 07:46:06;;;;;;;8.15;4.05;;;;;;;;;;5043622;28;20040;-75
2021/12/08 07:48:37;;;;;;;9.52;3.72;;;;;;;;;;5042643;28;20037;-76
2021/12/08 07:51:15;;;;;;;7.43;4.32;;;;;;;;;;5024875;28;20056;-75
2021/12/08 07:53:41;;;;;;;7.85;3.25;;;;;;;;;;5024858;28;20044;-75
2021/12/08 07:56:08;;;;;;;7.45;2.97;;;;;;;;;;5043494;28;20044;-76
2021/12/08 07:58:36;;;;;;;9.82;3.97;;;;;;;;;;5042874;28;20037;-75
2021/12/08 08:01:04;;;;;;;9.05;3.40;;;;;;;;;;5024695;28;20124;-75
2021/12/08 08:03:32;;;;;;;3.65;2.47;;;;;;;;;;5026011;28;20404;-74
2021/12/08 08:05:59;;;;;;;9.65;3.13;;;;;;;;;;5026855;28;20456;-77
2021/12/08 08:08:29;;;;;;;7.90;2.80;;;;;;;;;;5041439;28;20047;-76
2021/12/08 08:10:58;;;;;;;4.65;2.58;;;;;;;;;;5025341;28;20040;-76
2021/12/08 08:13:24;;;;;;;6.03;2.53;;;;;;;;;;5026887;28;20428;-76
2021/12/08 08:15:52;;;;;;;7.22;3.08;;;;;;;;;;5025815;28;20040;-75
2021/12/08 08:18:23;;;;;;;8.48;3.13;;;;;;;;;;5041579;28;20131;-75
2021/12/08 08:20:50;;;;;;;5.07;2.50;;;;;;;;;;5041883;28;20057;-76
2021/12/08 08:23:18;;;;;;;6.20;2.28;;;;;;;;;;5041569;28;20068;-73
2021/12/08 08:25:46;;;;;;;9.27;2.20;;;;;;;;;;5026906;28;20128;-75
2021/12/08 08:28:12;;;;;;;4.57;2.10;;;;;;;;;;5025557;28;20080;-76
2021/12/08 08:30:41;;;;;;;6.75;2.60;;;;;;;;;;5041236;28;20036;-75
2021/12/08 08:33:08;;;;;;;4.90;1.90;;;;;;;;;;5041572;28;20095;-74
2021/12/08 08:35:39;;;;;;;5.15;1.70;;;;;;;;;;5025299;28;20037;-75
2021/12/08 08:38:07;;;;;;;5.55;2.75;;;;;;;;;;5026531;28;20036;-76
2021/12/08 08:40:38;;;;;;;2.90;1.55;;;;;;;;;;5023948;28;20036;-74
2021/12/08 08:43:04;;;;;;;5.65;1.90;;;;;;;;;;5043022;28;20037;-74
2021/12/08 08:45:30;;;;;;;4.55;2.50;;;;;;;;;;5025423;28;20538;-76
2021/12/08 08:47:59;;;;;;;4.60;2.25;;;;;;;;;;5024910;28;20044;-76
2021/12/08 08:50:49;;;;;;;6.35;2.45;;;;;;;;;;5041217;28;20099;-74
2021/12/08 08:53:17;;;;;;;2.92;1.23;;;;;;;;;;5028564;28;20048;-77
2021/12/08 08:55:52;;;;;;;3.72;1.75;;;;;;;;;;5042952;28;20388;-75
2021/12/08 08:58:19;;;;;;;3.35;1.33;;;;;;;;;;5026553;28;20148;-76
2021/12/08 09:00:48;;;;;;;8.68;2.03;;;;;;;;;;5042954;28;20032;-75
2021/12/08 09:03:17;;;;;;;4.68;1.90;;;;;;;;;;5045556;28;20442;-75
2021/12/08 09:05:46;;;;;;;4.40;1.55;;;;;;;;;;5046923;28;20546;-73
2021/12/08 09:08:14;;;;;;;4.82;1.63;;;;;;;;;;5029115;28;20036;-74
2021/12/08 09:10:43;;;;;;;2.95;1.63;;;;;;;;;;5044470;28;20394;-74
2021/12/08 09:13:17;;;;;;;7.90;2.45;;;;;;;;;;5029437;28;20131;-75
2021/12/08 09:15:46;;;;;;;10.60;2.05;;;;;;;;;;5029926;28;20068;-74
2021/12/08 09:18:15;;;;;;;8.30;2.38;;;;;;;;;;5028934;28;20037;-75
2021/12/08 09:20:42;;;;;;;14.98;3.33;;;;;;;;;;5045143;28;20032;-75
2021/12/08 09:23:15;;;;;;;5.60;2.33;;;;;;;;;;5029833;28;20136;-76
2021/12/08 09:25:50;;;;;;;9.02;1.90;;;;;;;;;;5029308;28;20393;-75
2021/12/08 09:28:20;;;;;;;6.20;1.30;;;;;;;;;;5028757;28;20527;-74
2021/12/08 09:30:55;;;;;;;8.45;2.10;;;;;;;;;;5044089;28;20493;-75
2021/12/08 09:33:25;;;;;;;6.25;1.50;;;;;;;;;;5045015;28;20392;-75
2021/12/08 09:35:54;;;;;;;4.13;1.52;;;;;;;;;;5044462;28;20637;-76
2021/12/08 09:38:41;;;;;;;7.72;2.03;;;;;;;;;;5044822;28;20045;-75
2021/12/08 09:41:28;;;;;;;3.53;1.50;;;;;;;;;;5011488;28;20049;-76
2021/12/08 09:44:00;;;;;;;3.47;1.75;;;;;;;;;;5028163;28;20048;-76
2021/12/08 09:46:29;;;;;;;6.22;2.28;;;;;;;;;;5027165;28;20047;-75
2021/12/08 09:48:55;;;;;;;4.43;1.60;;;;;;;;;;5028005;28;20052;-73
2021/12/08 09:51:22;;;;;;;6.30;1.92;;;;;;;;;;5044565;28;20036;-76
2021/12/08 09:53:49;;;;;;;7.68;2.00;;;;;;;;;;5029875;28;20559;-76
2021/12/08 09:56:18;;;;;;;6.88;1.90;;;;;;;;;;5028212;28;20044;-75
2021/12/08 09:58:44;;;;;;;5.22;1.77;;;;;;;;;;5027205;28;20076;-74
2021/12/08 10:01:14;;;;;;;5.10;1.70;;;;;;;;;;5029242;28;20040;-75
2021/12/08 10:03:40;;;;;;;7.43;2.00;;;;;;;;;;5028254;28;20044;-75
2021/12/08 10:06:08;;;;;;;6.70;1.90;;;;;;;;;;5027142;28;20068;-75
2021/12/08 10:08:34;;;;;;;9.00;2.15;;;;;;;;;;5045452;28;20044;-76
2021/12/08 10:11:00;;;;;;;5.93;2.10;;;;;;;;;;5028283;28;20416;-75
2021/12/08 10:13:26;;;;;;;7.57;2.42;;;;;;;;;;5026318;28;21064;-76
2021/12/08 10:15:52;;;;;;;6.20;2.03;;;;;;;;;;5043687;28;20147;-74
2021/12/08 10:18:18;;;;;;;4.53;2.33;;;;;;;;;;5044614;28;20123;-76
2021/12/08 10:20:48;;;;;;;7.25;1.80;;;;;;;;;;5045103;28;20044;-75
2021/12/08 10:23:14;;;;;;;6.93;2.00;;;;;;;;;;5043577;28;20046;-76
2021/12/08 10:25:42;;;;;;;7.63;1.90;;;;;;;;;;5027526;28;20232;-75
2021/12/08 10:28:08;;;;;;;7.28;2.10;;;;;;;;;;5045123;28;20045;-77
2021/12/08 10:30:38;;;;;;;5.25;2.25;;;;;;;;;;5043658;28;20036;-75
2021/12/08 10:33:10;;;;;;;8.85;2.25;;;;;;;;;;5043678;28;20123;-75
2021/12/08 10:36:02;;;;;;;6.95;2.50;;;;;;;;;;5044187;28;20091;-75
2021/12/08 10:38:36;;;;;;;9.15;2.33;;;;;;;;;;5055190;28;20049;-75
2021/12/08 10:41:04;;;;;;;9.35;2.97;;;;;;;;;;5055423;28;20047;-75
2021/12/08 10:43:29;;;;;;;7.35;2.13;;;;;;;;;;5055105;28;20037;-76
2021/12/08 10:46:09;;;;;;;4.28;2.00;;;;;;;;;;5039112;28;20182;-75
2021/12/08 10:48:41;;;;;;;9.23;2.35;;;;;;;;;;5038464;28;20062;-76
2021/12/08 10:54:30;;;;;;;6.20;2.30;;;;;;;;;;5055067;28;20049;-75
2021/12/08 10:56:57;;;;;;;4.78;2.28;;;;;;;;;;5055321;28;20208;-76
2021/12/08 10:59:24;;;;;;;4.10;2.28;;;;;;;;;;5038426;28;20040;-76
2021/12/08 11:01:51;;;;;;;7.43;2.13;;;;;;;;;;5038700;28;20504;-76
2021/12/08 11:04:17;;;;;;;8.02;3.10;;;;;;;;;;5055153;28;20119;-76
2021/12/08 11:06:44;;;;;;;7.68;2.53;;;;;;;;;;5054953;28;20202;-76
2021/12/08 11:09:14;;;;;;;5.07;2.28;;;;;;;;;;5054682;28;20480;-75
2021/12/08 11:11:43;;;;;;;7.47;2.58;;;;;;;;;;5054661;28;20441;-75
2021/12/08 11:14:10;;;;;;;6.20;1.88;;;;;;;;;;5055049;28;20123;-77
2021/12/08 11:16:38;;;;;;;8.73;2.50;;;;;;;;;;5038298;28;20162;-76
2021/12/08 11:19:15;;;;;;;9.48;2.53;;;;;;;;;;5037760;28;20033;-76
2021/12/08 11:21:47;;;;;;;7.82;2.40;;;;;;;;;;5054368;28;20049;-76
2021/12/08 11:24:20;;;;;;;6.38;2.40;;;;;;;;;;5054179;28;20064;-76
2021/12/08 11:26:48;;;;;;;3.63;2.00;;;;;;;;;;5038080;28;20036;-74
2021/12/08 11:29:16;;;;;;;10.77;2.90;;;;;;;;;;5037704;28;20534;-74
2021/12/08 11:31:59;;;;;;;5.20;2.25;;;;;;;;;;5037566;28;20148;-76
2021/12/08 11:34:26;;;;;;;4.82;1.40;;;;;;;;;;5037562;28;20055;-74
2021/12/08 11:36:57;;;;;;;5.97;2.10;;;;;;;;;;5037668;28;20040;-75
2021/12/08 11:39:25;;;;;;;5.18;2.42;;;;;;;;;;5037739;28;20041;-75
2021/12/08 11:41:53;;;;;;;4.38;2.35;;;;;;;;;;5037754;28;20040;-75
2021/12/08 11:44:20;;;;;;;6.05;2.33;;;;;;;;;;5054285;28;20385;-76
2021/12/08 11:46:51;;;;;;;6.68;2.20;;;;;;;;;;5054342;28;20041;-75
2021/12/08 11:49:17;;;;;;;8.82;2.40;;;;;;;;;;5054186;28;20072;-76
2021/12/08 11:51:43;;;;;;;4.13;3.33;;;;;;;;;;5037258;28;20158;-76
2021/12/08 11:54:28;;;;;;;6.68;2.45;;;;;;;;;;5053916;28;20040;-76
2021/12/08 11:57:21;;;;;;;7.53;2.40;;;;;;;;;;5037086;28;20090;-74
2021/12/08 11:59:54;;;;;;;3.72;2.33;;;;;;;;;;5032680;28;20055;-76
2021/12/08 12:02:22;;;;;;;5.85;2.25;;;;;;;;;;5053980;28;20051;-76
2021/12/08 12:04:49;;;;;;;4.13;1.98;;;;;;;;;;5054071;28;20059;-76
2021/12/08 12:07:15;;;;;;;5.50;2.75;;;;;;;;;;5053566;28;20045;-75
2021/12/08 12:09:42;;;;;;;8.15;2.90;;;;;;;;;;5037251;28;20040;-75
2021/12/08 12:12:08;;;;;;;5.10;2.10;;;;;;;;;;5037313;28;20056;-77
2021/12/08 12:14:34;;;;;;;7.63;2.08;;;;;;;;;;5053666;28;20562;-75
2021/12/08 12:17:00;;;;;;;7.82;2.30;;;;;;;;;;5037008;28;20041;-76
2021/12/08 12:19:30;;;;;;;4.28;2.28;;;;;;;;;;5053800;28;20518;-75
2021/12/08 12:22:01;;;;;;;4.67;2.27;;;;;;;;;;5036825;28;20082;-76
2021/12/08 12:24:39;;;;;;;7.82;2.40;;;;;;;;;;5053494;28;20075;-76
2021/12/08 12:27:09;;;;;;;5.47;2.03;;;;;;;;;;5037096;28;20036;-77
2021/12/08 12:29:51;;;;;;;6.20;2.25;;;;;;;;;;5036765;28;20467;-75
2021/12/08 12:32:26;;;;;;;5.53;2.25;;;;;;;;;;5053404;28;20051;-76
2021/12/08 12:34:53;;;;;;;5.55;2.25;;;;;;;;;;5036121;28;20041;-76
2021/12/08 12:37:30;;;;;;;3.58;1.85;;;;;;;;;;5053266;28;20045;-76
2021/12/08 12:39:58;;;;;;;5.82;1.83;;;;;;;;;;5053708;28;20040;-77
2021/12/08 12:42:25;;;;;;;5.70;1.90;;;;;;;;;;5053096;28;20507;-76
2021/12/08 12:44:57;;;;;;;10.63;2.20;;;;;;;;;;5053317;28;20536;-75
2021/12/08 12:47:26;;;;;;;7.72;2.17;;;;;;;;;;5036571;28;20079;-76
2021/12/08 12:50:01;;;;;;;8.52;2.10;;;;;;;;;;5036987;28;20079;-76
2021/12/08 12:52:41;;;;;;;5.53;1.90;;;;;;;;;;5053452;28;20048;-76
2021/12/08 12:55:12;;;;;;;10.48;2.20;;;;;;;;;;5036680;28;20123;-75
2021/12/08 12:57:57;;;;;;;5.38;2.38;;;;;;;;;;5053216;28;20596;-75
2021/12/08 13:00:28;;;;;;;5.88;2.17;;;;;;;;;;5053300;28;20041;-77
2021/12/08 13:02:54;;;;;;;4.40;1.67;;;;;;;;;;5053565;28;20051;-76
2021/12/08 13:05:21;;;;;;;4.30;1.83;;;;;;;;;;5052985;28;20029;-76
2021/12/08 13:07:58;;;;;;;7.35;2.03;;;;;;;;;;5052652;28;20049;-75
2021/12/08 13:10:33;;;;;;;5.60;1.67;;;;;;;;;;5052790;28;20127;-76
2021/12/08 13:13:15;;;;;;;9.43;1.85;;;;;;;;;;5036547;28;20040;-76
2021/12/08 13:15:44;;;;;;;7.00;1.55;;;;;;;;;;5036680;28;20040;-76
2021/12/08 13:18:11;;;;;;;5.45;1.80;;;;;;;;;;5048589;28;20052;-77
2021/12/08 13:20:40;;;;;;;3.58;1.80;;;;;;;;;;5049632;28;20068;-76
2021/12/08 13:23:08;;;;;;;4.22;1.70;;;;;;;;;;5048742;28;20075;-76
2021/12/08 13:28:22;;;;;;;7.32;2.13;;;;;;;;;;5049383;28;20074;-76
2021/12/08 13:30:55;;;;;;;2.80;2.03;;;;;;;;;;5032934;28;20056;-77
2021/12/08 13:33:32;;;;;;;10.38;2.17;;;;;;;;;;5032767;28;20048;-75
2021/12/08 13:36:00;;;;;;;5.10;1.88;;;;;;;;;;5032713;28;20209;-77
2021/12/08 13:38:26;;;;;;;6.72;1.73;;;;;;;;;;5049230;28;20056;-76
2021/12/08 13:40:54;;;;;;;2.33;1.70;;;;;;;;;;5049146;28;20047;-77
2021/12/08 13:43:41;;;;;;;7.78;2.15;;;;;;;;;;5049512;28;20127;-77
2021/12/08 13:46:07;;;;;;;3.25;1.58;;;;;;;;;;5050585;28;20074;-77
2021/12/08 13:48:34;;;;;;;4.93;1.98;;;;;;;;;;5039803;28;20067;-77
2021/12/08 13:51:20;;;;;;;9.20;2.15;;;;;;;;;;5056223;28;20090;-76
2021/12/08 13:54:06;;;;;;;5.65;2.22;;;;;;;;;;5056437;28;20045;-77
2021/12/08 13:56:40;;;;;;;5.07;2.03;;;;;;;;;;5056082;28;20098;-77
2021/12/08 13:59:07;;;;;;;6.50;1.67;;;;;;;;;;5056019;28;20094;-76
2021/12/08 14:01:37;;;;;;;3.80;1.67;;;;;;;;;;5056074;28;20539;-77
2021/12/08 14:04:15;;;;;;;2.20;1.73;;;;;;;;;;5056055;28;20040;-76
2021/12/08 14:06:41;;;;;;;3.22;1.70;;;;;;;;;;5056233;28;20041;-76
2021/12/08 14:09:13;;;;;;;3.67;2.05;;;;;;;;;;5055846;28;20454;-76
2021/12/08 14:11:39;;;;;;;3.38;2.10;;;;;;;;;;5056039;28;20058;-76
2021/12/08 14:14:08;;;;;;;4.70;1.65;;;;;;;;;;5056514;28;20044;-75
2021/12/08 14:16:34;;;;;;;4.78;1.88;;;;;;;;;;5056367;28;20059;-76
2021/12/08 14:19:00;;;;;;;4.32;1.70;;;;;;;;;;5039658;28;20564;-76
2021/12/08 14:21:33;;;;;;;5.38;1.83;;;;;;;;;;5055962;28;20056;-76
2021/12/08 14:24:06;;;;;;;10.00;1.58;;;;;;;;;;5054603;28;20080;-76
2021/12/08 14:26:35;;;;;;;6.80;1.60;;;;;;;;;;5019284;28;20051;-76
2021/12/08 14:29:09;;;;;;;5.18;1.77;;;;;;;;;;5034643;28;20099;-76
2021/12/08 14:31:40;;;;;;;5.10;1.65;;;;;;;;;;5034863;28;20074;-76
2021/12/08 14:34:08;;;;;;;1.98;1.52;;;;;;;;;;5018201;28;20048;-76
2021/12/08 14:36:37;;;;;;;4.90;1.13;;;;;;;;;;5026428;28;20041;-77
2021/12/08 14:39:05;;;;;;;5.13;1.67;;;;;;;;;;5036828;28;20055;-77
2021/12/08 14:41:32;;;;;;;4.38;1.40;;;;;;;;;;5053476;28;20098;-76
2021/12/08 14:44:17;;;;;;;5.60;1.60;;;;;;;;;;5053379;28;20041;-77
2021/12/08 14:46:44;;;;;;;3.33;1.70;;;;;;;;;;5036643;28;20043;-77
2021/12/08 14:49:14;;;;;;;6.97;1.92;;;;;;;;;;5037151;28;20051;-76
2021/12/08 14:51:40;;;;;;;4.65;1.92;;;;;;;;;;5053182;28;20044;-76
2021/12/08 14:54:39;;;;;;;3.78;1.45;;;;;;;;;;5053730;28;20488;-76
2021/12/08 14:57:10;;;;;;;2.85;1.40;;;;;;;;;;5010625;28;20056;-76
2021/12/08 14:59:36;;;;;;;;;;;;;;;;;;5054092;28;20059;-75
2021/12/08 15:02:02;;;;;;;3.38;1.70;;;;;;;;;;5052917;28;19916;-76
2021/12/08 15:04:28;;;;;;;5.55;1.58;;;;;;;;;;5052800;28;20040;-78
2021/12/08 15:06:59;;;;;;;4.95;1.63;;;;;;;;;;5052693;28;20048;-76
2021/12/08 15:09:25;;;;;;;5.63;1.60;;;;;;;;;;5052993;28;20040;-77
2021/12/08 15:11:53;;;;;;;11.18;1.58;;;;;;;;;;5052909;28;20044;-77
2021/12/08 15:14:19;;;;;;;3.50;1.67;;;;;;;;;;5052667;28;20037;-77
2021/12/08 15:16:47;;;;;;;7.82;1.88;;;;;;;;;;5036148;28;20143;-76
2021/12/08 15:19:13;;;;;;;3.30;1.50;;;;;;;;;;5035873;28;20051;-76
2021/12/08 15:21:40;;;;;;;5.18;1.63;;;;;;;;;;5052439;28;20056;-75
2021/12/08 15:24:08;;;;;;;6.32;1.60;;;;;;;;;;5036072;28;20090;-76
2021/12/08 15:26:34;;;;;;;5.30;1.90;;;;;;;;;;5052386;28;20041;-77
2021/12/08 15:29:01;;;;;;;6.20;1.92;;;;;;;;;;5052436;28;20130;-77
2021/12/08 15:31:30;;;;;;;5.55;2.13;;;;;;;;;;5052801;28;20083;-76
2021/12/08 15:33:57;;;;;;;6.60;2.00;;;;;;;;;;5035883;28;20485;-76